Home > Products > Valid Products > TAF

000
FTUS44 KLIX 161700
TAFNEW
TAF
KNEW 161731Z 1618/1718 VRB04KT P6SM VCTS SCT025CB BKN060
      TEMPO 1618/1622 3SM TSRA BKN025CB
     FM170100 27004KT P6SM SCT090
     FM171000 34008KT P6SM SCT050
     FM171400 36005KT P6SM VCSH SCT025 BKN050
     FM171700 36005KT P6SM VCTS SCT025CB BKN070=



000
FTUS44 KLIX 161700
TAFBTR
TAF
KBTR 161731Z 1618/1718 VRB03KT P6SM VCTS SCT025CB BKN090
      TEMPO 1619/1623 3SM TSRA BKN025CB
     FM170100 00000KT P6SM BKN090
     FM171100 00000KT P6SM SCT060=



000
FTUS44 KLIX 161700
TAFMSY
TAF
KMSY 161731Z 1618/1718 VRB03KT P6SM VCTS SCT035CB BKN070
      TEMPO 1618/1622 3SM TSRA BKN025CB
     FM170100 VRB03KT P6SM BKN100
     FM171400 34004KT P6SM VCSH SCT020 BKN050
     FM171700 04004KT P6SM VCTS SCT025CB BKN070=



000
FTUS44 KLIX 161700
TAFMCB
TAF
KMCB 161731Z 1618/1718 VRB04KT P6SM SCT030
     FM161900 VRB04KT P6SM VCTS BKN035CB
     FM170100 00000KT P6SM BKN040
     FM170800 00000KT P6SM SCT040
     FM171500 00000KT P6SM SCT250=



000
FTUS44 KLIX 161700
TAFGPT
TAF
KGPT 161731Z 1618/1718 31004KT P6SM VCTS SCT025CB BKN070
      TEMPO 1619/1623 3SM TSRA BKN025CB
     FM170100 VRB03KT P6SM SCT080
     FM171200 36005KT P6SM SCT040
     FM171600 07005KT P6SM SCT040=



000
FTUS44 KLIX 161100 RRA
TAFNEW
TAF
KNEW 161142Z 1612/1712 31006KT P6SM SCT035
     FM161800 36007KT P6SM VCTS BKN035CB
      TEMPO 1619/1623 VRB15KT 1SM TSRA BR BKN025CB
     FM170000 24006KT P6SM BKN035=



000
FTUS44 KLIX 161100 RRA
TAFMCB
TAF
KMCB 161142Z 1612/1712 00000KT P6SM SCT035
     FM161500 VRB03KT P6SM BKN035
     FM161800 02004KT P6SM VCTS BKN035CB
      TEMPO 1619/1623 VRB15KT 1SM TSRA BR BKN025CB
     FM170000 00000KT P6SM BKN035=



000
FTUS44 KLIX 161100 RRA
TAFNEW
TAF
KNEW 161142Z 1612/1712 31006KT P6SM SCT035
     FM161800 36007KT P6SM VCTS BKN035CB
      TEMPO 1619/1623 VRB15KT 1SM TSRA BR BKN025CB
     FM170000 24006KT P6SM BKN035=



000
FTUS44 KLIX 161100 RRA
TAFGPT
TAF
KGPT 161142Z 1612/1712 33004KT P6SM SCT035
     FM161600 00000KT P6SM VCTS BKN035CB
     FM161800 21004KT P6SM BKN035
      TEMPO 1619/1623 VRB15KT 1SM TSRA BR BKN025CB
     FM170000 VRB03KT P6SM BKN035=



000
FTUS44 KLIX 161100 RRA
TAFBTR
TAF
KBTR 161142Z 1612/1712 00000KT P6SM SKC
     FM161600 VRB03KT P6SM BKN035
     FM161900 VRB03KT P6SM VCTS SCT025CB
      TEMPO 1619/1623 VRB15KT 1SM TSRA BR BKN025CB
     FM170200 VRB03KT P6SM SCT035=



000
FTUS44 KLIX 161100 RRA
TAFMSY
TAF
KMSY 161142Z 1612/1712 00000KT P6SM FEW260
     FM161400 VRB03KT P6SM BKN035
     FM161900 12007KT P6SM VCTS BKN025CB
      TEMPO 1619/1623 VRB15KT 1SM TSRA BR BKN020CB
     FM170100 23005KT P6SM BKN035=



000
FTUS44 KLIX 160500
TAFNEW
TAF
KNEW 160526Z 1606/1706 22005KT P6SM SKC
     FM160800 VRB03KT P6SM BKN200
     FM161500 36002KT P6SM BKN030
     FM161800 36007KT P6SM BKN035
      TEMPO 1619/1623 VRB15KT 1SM TSRA BR BKN025CB
     FM170000 24006KT P6SM BKN035=



000
FTUS44 KLIX 160500
TAFGPT
TAF
KGPT 160526Z 1606/1706 35004KT P6SM SKC
     FM161400 03004KT P6SM BKN035
     FM161500 36002KT P6SM BKN030
     FM161800 21004KT P6SM BKN035
      TEMPO 1619/1623 VRB15KT 1SM TSRA BR BKN025CB
     FM170000 VRB03KT P6SM BKN035=



000
FTUS44 KLIX 160500
TAFMCB
TAF
KMCB 160526Z 1606/1706 00000KT P6SM FEW035
     FM160800 00000KT P6SM SCT030 SCT100
      TEMPO 1610/1613 3SM BR
     FM161500 36002KT P6SM BKN030
     FM161800 02004KT P6SM BKN035
      TEMPO 1619/1623 VRB15KT 1SM TSRA BR BKN025CB
     FM170000 00000KT P6SM BKN035=



000
FTUS44 KLIX 160500
TAFMSY
TAF
KMSY 160526Z 1606/1706 00000KT P6SM FEW015 BKN260
     FM161400 03004KT P6SM BKN035
     FM161900 12007KT P6SM BKN025
      TEMPO 1619/1623 VRB15KT 1SM TSRA BR BKN020CB
     FM162300 VRB03KT P6SM VCTS BKN035CB
     FM170100 19003KT P6SM BKN035=



000
FTUS44 KLIX 160500
TAFBTR
TAF
KBTR 160526Z 1606/1706 00000KT P6SM SKC
     FM161500 VRB03KT P6SM BKN035
     FM161900 05004KT P6SM SCT025 BKN035
      TEMPO 1619/1623 VRB15KT 1SM TSRA BR BKN025CB
     FM162300 VRB03KT P6SM VCTS BKN035CB
     FM170100 00000KT P6SM BKN035=



000
FTUS44 KLIX 160500
TAFNEW
TAF
KNEW 160526Z 1606/1706 22005KT P6SM SKC
     FM160800 VRB03KT P6SM BKN200
     FM161500 36002KT P6SM BKN030
     FM161800 36007KT P6SM BKN035
      TEMPO 1619/1623 VRB15KT 1SM TSRA BR BKN025CB
     FM170000 24006KT P6SM BKN035=



000
FTUS44 KLIX 152300
TAFBTR
TAF
KBTR 152323Z 1600/1624 VRB04KT P6SM SCT035 BKN100
      TEMPO 1600/1601 VRB15KT 1SM TSRA BKN030CB
     FM160100 00000KT P6SM BKN200
     FM161500 VRB03KT P6SM VCTS BKN035CB=



000
FTUS44 KLIX 152300
TAFMCB
TAF
KMCB 152323Z 1600/1624 VRB03KT P6SM FEW050
     FM160100 00000KT P6SM BKN200
     FM161500 00000KT P6SM BKN025
     FM161600 VRB03KT P6SM VCTS BKN025CB=



000
FTUS44 KLIX 152300
TAFMSY
TAF
KMSY 152323Z 1600/1624 10004KT P6SM FEW050
     FM160700 00000KT P6SM BKN200
     FM161400 03004KT P6SM VCTS BKN035CB=



000
FTUS44 KLIX 152300
TAFGPT
TAF
KGPT 152323Z 1600/1624 14008KT P6SM VCSH SCT060
     FM161400 03004KT P6SM VCTS BKN035CB=



000
FTUS44 KLIX 152300
TAFNEW
TAF
KNEW 152323Z 1600/1624 20008KT P6SM VCSH FEW020 SCT030
     FM160200 VRB03KT P6SM BKN200
     FM161600 03006KT P6SM VCTS BKN025CB=



000
FTUS44 KLIX 152300
TAFNEW
TAF
KNEW 152323Z 1600/1624 20008KT P6SM VCSH FEW020 SCT030
     FM160200 VRB03KT P6SM BKN200
     FM161600 03006KT P6SM VCTS BKN025CB=



000
FTUS44 KLIX 152200 AAB
TAFBTR
TAF AMD
KBTR 152227Z 1522/1618 04004KT P6SM VCSH SCT035 BKN100
      TEMPO 1522/1524 VRB25KT 2SM TSRA BKN025CB
     FM160200 00000KT P6SM BKN035=



000
FTUS44 KLIX 151900 AAA
TAFMSY
TAF AMD
KMSY 151908Z 1519/1618 05009KT P6SM VCSH SCT040 BKN100
      TEMPO 1519/1522 VRB25KT 2SM TSRA BKN025CB
     FM152300 11004KT P6SM VCTS BKN025CB BKN250
     FM160200 00000KT P6SM SCT035 BKN250=



000
FTUS44 KLIX 151900 AAA
TAFMCB
TAF AMD
KMCB 151908Z 1519/1618 10005KT P6SM VCTS SCT040CB
      TEMPO 1519/1523 VRB25KT 2SM TSRA BKN025CB
     FM160400 00000KT P6SM BKN035=



000
FTUS44 KLIX 151900 AAA
TAFBTR
TAF AMD
KBTR 151907Z 1519/1618 04004KT P6SM VCSH BKN035
      TEMPO 1519/1523 VRB25KT 2SM TSRA BKN025CB
     FM160200 00000KT P6SM BKN035=



000
FTUS44 KLIX 151700
TAFNEW
TAF
KNEW 151721Z 1518/1618 05010KT P6SM VCSH SCT035 SCT060
      TEMPO 1518/1522 VRB25KT 2SM TSRA BKN025CB
     FM160200 10006KT P6SM SCT035=



000
FTUS44 KLIX 151700
TAFMSY
TAF
KMSY 151721Z 1518/1618 05009KT P6SM VCSH SCT025 SCT130 BKN250
      TEMPO 1518/1522 VRB25KT 2SM TSRA BKN025CB
     FM152300 11004KT P6SM VCTS BKN025CB BKN250
     FM160200 00000KT P6SM SCT035 BKN250=



000
FTUS44 KLIX 151700
TAFNEW
TAF
KNEW 151721Z 1518/1618 05010KT P6SM VCSH SCT035 SCT060
      TEMPO 1518/1522 VRB25KT 2SM TSRA BKN025CB
     FM160200 10006KT P6SM SCT035=



000
FTUS44 KLIX 151700
TAFBTR
TAF
KBTR 151721Z 1518/1618 04004KT P6SM VCSH FEW027 SCT035
      TEMPO 1519/1523 VRB25KT 2SM TSRA BKN025CB
     FM160200 00000KT P6SM BKN035=



000
FTUS44 KLIX 151700
TAFMCB
TAF
KMCB 151721Z 1518/1618 10005KT P6SM VCTS SCT030CB
      TEMPO 1519/1523 VRB25KT 2SM TSRA BKN025CB
     FM160400 00000KT P6SM BKN035=



000
FTUS44 KLIX 151700
TAFGPT
TAF
KGPT 151721Z 1518/1618 07005KT P6SM VCSH SCT027 SCT035
      TEMPO 1518/1522 VRB25KT 2SM TSRA BKN025CB
     FM160200 00000KT P6SM SCT035=



000
FTUS44 KLIX 151600 CCA
TAFMSY
TAF COR
KMSY 151649Z 1517/1612 05008KT P6SM -RA VCSH SCT025 SCT130 BKN250
      TEMPO 1517/1521 VRB25KT 2SM TSRA BKN025CB
     FM152200 11004KT P6SM VCSH BKN035
     FM160200 00000KT P6SM BKN035=



000
FTUS44 KLIX 151600 AAC
TAFNEW
TAF AMD
KNEW 151648Z 1517/1612 06008KT P6SM VCSH FEW023 BKN035
      TEMPO 1517/1521 VRB25KT 2SM TSRA BKN025CB
     FM152200 10006KT P6SM VCSH BKN035
     FM160300 10006KT P6SM FEW040=



000
FTUS44 KLIX 151600 AAC
TAFNEW
TAF AMD
KNEW 151648Z 1517/1612 06008KT P6SM VCSH FEW023 BKN035
      TEMPO 1517/1521 VRB25KT 2SM TSRA BKN025CB
     FM152200 10006KT P6SM VCSH BKN035
     FM160300 10006KT P6SM FEW040=



000
FTUS44 KLIX 151600 AAB
TAFGPT
TAF AMD
KGPT 151646Z 1517/1612 07005KT P6SM VCSH SCT027 SCT035
     FM151700 09006KT P6SM VCSH SCT025 BKN035
      TEMPO 1517/1521 VRB25KT 2SM TSRA BKN025CB
     FM160200 00000KT P6SM BKN035=



000
FTUS44 KLIX 151600 AAC
TAFMSY
TAF AMD
KMSY 151643Z 1517/1612 05008KT P6SM -RA VCSH SCT025 SCT130 BKN250
      TEMPO 1517/1519 VRB25KT 2SM TSRA BKN025CB
     FM152200 11004KT P6SM VCSH BKN035
     FM160200 00000KT P6SM BKN035=



000
FTUS44 KLIX 151500 AAB
TAFNEW
TAF AMD
KNEW 151515Z 1515/1612 06010KT P6SM VCSH SCT022
      TEMPO 1515/1519 VRB25KT 2SM TSRA BKN025CB
     FM152200 10006KT P6SM VCSH BKN035
     FM160300 10006KT P6SM FEW040=



000
FTUS44 KLIX 151500 AAB
TAFMSY
TAF AMD
KMSY 151513Z 1515/1612 08006KT P6SM VCSH SCT015 SCT110 BKN250
      TEMPO 1515/1519 VRB25KT 2SM TSRA BKN025CB
     FM152200 11004KT P6SM VCSH BKN035
     FM160200 00000KT P6SM BKN035=



000
FTUS44 KLIX 151300 AAA
TAFGPT
TAF AMD
KGPT 151348Z 1514/1612 07005KT P6SM VCSH SCT035
     FM151500 09006KT P6SM BKN035
      TEMPO 1515/1519 VRB25KT 2SM TSRA BKN025CB
     FM160200 00000KT P6SM BKN035=



000
FTUS44 KLIX 151300 AAA
TAFNEW
TAF AMD
KNEW 151342Z 1514/1612 05009KT P6SM VCSH BKN035
      TEMPO 1514/1518 VRB25KT 2SM TSRA BKN025CB
     FM152200 10006KT P6SM VCSH BKN035
     FM160300 10006KT P6SM FEW040=



000
FTUS44 KLIX 151300 AAA
TAFNEW
TAF AMD
KNEW 151342Z 1514/1612 05009KT P6SM VCSH BKN035
      TEMPO 1514/1518 VRB25KT 2SM TSRA BKN025CB
     FM152200 10006KT P6SM VCSH BKN035
     FM160300 10006KT P6SM FEW040=



000
FTUS44 KLIX 151300 AAA
TAFMSY
TAF AMD
KMSY 151340Z 1514/1612 07006KT P6SM VCSH BKN027 BKN250
      TEMPO 1514/1518 VRB25KT 2SM TSRA BKN025CB
     FM152200 11004KT P6SM VCSH BKN035
     FM160200 00000KT P6SM BKN035=



000
FTUS44 KLIX 151100
TAFNEW
TAF
KNEW 151130Z 1512/1612 05009KT P6SM BKN035
      TEMPO 1518/1522 VRB25KT 2SM TSRA BKN025CB
     FM152200 10006KT P6SM VCSH BKN035
     FM160300 10006KT P6SM FEW040=



000
FTUS44 KLIX 151100
TAFBTR
TAF
KBTR 151130Z 1512/1612 00000KT P6SM SCT035
     FM151600 08004KT P6SM VCSH SCT035
     FM160200 00000KT P6SM BKN035=



000
FTUS44 KLIX 151100
TAFGPT
TAF
KGPT 151130Z 1512/1612 07005KT P6SM SCT035
     FM151500 09006KT P6SM BKN035
     FM151900 13006KT P6SM VCTS BKN025CB
      TEMPO 1519/1522 VRB25KT 2SM TSRA BKN025CB
     FM160200 00000KT P6SM BKN035=



000
FTUS44 KLIX 151100
TAFMSY
TAF
KMSY 151130Z 1512/1612 07004KT P6SM BKN035
     FM151600 08007KT P6SM BKN025
      TEMPO 1518/1522 VRB25KT 2SM TSRA BKN025CB
     FM152200 11004KT P6SM VCSH BKN035
     FM160200 00000KT P6SM BKN035=



000
FTUS44 KLIX 151100
TAFMCB
TAF
KMCB 151130Z 1512/1612 04004KT P6SM SCT035
     FM151600 03005KT P6SM SCT035
     FM151900 03005KT P6SM VCSH BKN035
     FM160400 00000KT P6SM BKN035=



000
FTUS44 KLIX 150500
TAFNEW
TAF
KNEW 150525Z 1506/1606 00000KT P6SM SKC
     FM151600 08008KT P6SM SCT035
      TEMPO 1518/1522 VRB25KT 2SM TSRA BKN025CB
     FM160000 12006KT P6SM FEW040 SCT090=



000
FTUS44 KLIX 150500
TAFMSY
TAF
KMSY 150525Z 1506/1606 00000KT P6SM FEW250
     FM151500 08007KT P6SM SCT035
      TEMPO 1518/1522 VRB25KT 2SM TSRA BKN025CB
     FM160000 12005KT P6SM FEW040 SCT090=



000
FTUS44 KLIX 150500
TAFGPT
TAF
KGPT 150525Z 1506/1606 00000KT P6SM SKC
     FM151400 09006KT P6SM SCT025
     FM151600 12007KT P6SM SCT035
      TEMPO 1518/1522 VRB25KT 2SM TSRA BKN025CB
     FM160000 13004KT P6SM FEW045 SCT100=



000
FTUS44 KLIX 150500
TAFNEW
TAF
KNEW 150525Z 1506/1606 00000KT P6SM SKC
     FM151600 08008KT P6SM SCT035
      TEMPO 1518/1522 VRB25KT 2SM TSRA BKN025CB
     FM160000 12006KT P6SM FEW040 SCT090=



000
FTUS44 KLIX 150500
TAFMCB
TAF
KMCB 150525Z 1506/1606 01003KT P6SM SCT040
     FM151500 07004KT P6SM SCT035 PROB30 1520/1524 TSRA BKN025CB
     FM160000 VRB03KT P6SM SCT100 SCT250=



000
FTUS44 KLIX 150500
TAFBTR
TAF
KBTR 150525Z 1506/1606 02004KT P6SM SKC
     FM151600 08005KT P6SM SCT035 PROB30 1520/1524 TSRA BKN025CB
     FM160000 VRB03KT P6SM SCT100 SCT250=



000
FTUS44 KLIX 142300
TAFMSY
TAF
KMSY 142321Z 1500/1524 06007KT P6SM FEW030 SCT250
     FM150100 10006KT P6SM SCT130
     FM151600 08007KT P6SM SCT035
      TEMPO 1518/1522 VRB25KT 2SM TSRA BKN025CB=



000
FTUS44 KLIX 142300
TAFGPT
TAF
KGPT 142321Z 1500/1524 14010KT P6SM VCSH SCT025
     FM150100 11005KT P6SM SKC
     FM151400 09006KT P6SM SCT025
     FM151600 12007KT P6SM SCT035
      TEMPO 1518/1522 VRB25KT 2SM TSRA BKN025CB=



000
FTUS44 KLIX 142300
TAFNEW
TAF
KNEW 142321Z 1500/1524 08005KT P6SM FEW029
     FM150100 11007KT P6SM SKC
     FM151600 08008KT P6SM SCT035
      TEMPO 1518/1522 VRB25KT 2SM TSRA BKN025CB=



000
FTUS44 KLIX 142300
TAFBTR
TAF
KBTR 142321Z 1500/1524 03006KT P6SM SCT029
     FM150400 00000KT P6SM SCT250
     FM151600 08005KT P6SM SCT035 PROB30 1520/1524 TSRA BKN025CB=



000
FTUS44 KLIX 142300
TAFNEW
TAF
KNEW 142321Z 1500/1524 08005KT P6SM FEW029
     FM150100 11007KT P6SM SKC
     FM151600 08008KT P6SM SCT035
      TEMPO 1518/1522 VRB25KT 2SM TSRA BKN025CB=



000
FTUS44 KLIX 142300
TAFMCB
TAF
KMCB 142321Z 1500/1524 04005KT P6SM FEW035
     FM150700 00000KT P6SM SKC
     FM151700 07004KT P6SM SCT035 PROB30 1520/1524 TSRA BKN025CB=



000
FTUS44 KLIX 142100 AAA
TAFGPT
TAF AMD
KGPT 142138Z 1422/1518 17007KT P6SM VCSH SCT025
     FM150100 11004KT P6SM SCT250
     FM151400 08005KT P6SM BKN150=



000
FTUS44 KLIX 141700
TAFNEW
TAF
KNEW 141720Z 1418/1518 04007KT P6SM SKC
     FM142100 09006KT P6SM SCT250=



000
FTUS44 KLIX 141700
TAFMSY
TAF
KMSY 141720Z 1418/1518 03008KT P6SM FEW012
     FM142100 08007KT P6SM BKN250
     FM150200 10005KT P6SM SKC
     FM151200 08004KT P6SM SCT035=



000
FTUS44 KLIX 141700
TAFBTR
TAF
KBTR 141720Z 1418/1518 03007KT P6SM FEW013
     FM142200 05005KT P6SM SCT050
     FM150600 00000KT P6SM SKC
     FM151500 09005KT P6SM SCT250=



000
FTUS44 KLIX 141700
TAFGPT
TAF
KGPT 141720Z 1418/1518 35007KT P6SM SKC
     FM142200 12006KT P6SM BKN250
     FM150100 11004KT P6SM SCT250
     FM151400 08005KT P6SM BKN150=



000
FTUS44 KLIX 141700
TAFNEW
TAF
KNEW 141720Z 1418/1518 04007KT P6SM SKC
     FM142100 09006KT P6SM SCT250=



000
FTUS44 KLIX 141700
TAFMCB
TAF
KMCB 141720Z 1418/1518 VRB06KT P6SM FEW017 FEW023
     FM142200 03005KT P6SM SCT050
     FM150800 VRB03KT P6SM SCT250=



000
FTUS44 KLIX 141500 AAA
TAFNEW
TAF AMD
KNEW 141546Z 1416/1512 05008KT P6SM SCT012
     FM141800 07009KT P6SM BKN040
     FM150000 11007KT P6SM BKN040=



000
FTUS44 KLIX 141500 AAA
TAFNEW
TAF AMD
KNEW 141546Z 1416/1512 05008KT P6SM SCT012
     FM141800 07009KT P6SM BKN040
     FM150000 11007KT P6SM BKN040=



000
FTUS44 KLIX 141500 AAA
TAFMSY
TAF AMD
KMSY 141545Z 1416/1512 06008KT P6SM OVC011
     FM141800 06008KT P6SM BKN040
     FM150300 11004KT P6SM BKN040=



000
FTUS44 KLIX 141100
TAFBTR
TAF
KBTR 141120Z 1412/1512 03005KT P6SM OVC010
     FM141500 05007KT P6SM SCT035
     FM150200 VRB03KT P6SM SCT030=



000
FTUS44 KLIX 141100
TAFMSY
TAF
KMSY 141120Z 1412/1512 05012KT P6SM OVC012
     FM141500 05011KT P6SM BKN025
     FM141800 06008KT P6SM VCTS BKN040CB
     FM150300 11004KT P6SM BKN040=



000
FTUS44 KLIX 141100
TAFGPT
TAF
KGPT 141120Z 1412/1512 01007KT P6SM SCT010
     FM141700 08007KT P6SM VCTS BKN040CB
     FM150300 VRB03KT P6SM VCSH BKN040
     FM150600 VRB03KT P6SM BKN040=



000
FTUS44 KLIX 141100
TAFNEW
TAF
KNEW 141120Z 1412/1512 04013KT P6SM OVC012
     FM141800 07009KT P6SM VCTS BKN040CB
     FM150000 11008KT P6SM VCSH BKN040
     FM150300 11005KT P6SM BKN040=



000
FTUS44 KLIX 141100
TAFNEW
TAF
KNEW 141120Z 1412/1512 04013KT P6SM OVC012
     FM141800 07009KT P6SM VCTS BKN040CB
     FM150000 11008KT P6SM VCSH BKN040
     FM150300 11005KT P6SM BKN040=



000
FTUS44 KLIX 141100
TAFMCB
TAF
KMCB 141120Z 1412/1512 02006KT P6SM OVC015
     FM141500 02005KT P6SM BKN035
     FM150200 VRB03KT P6SM SCT035=



000
FTUS44 KLIX 140800 AAA
TAFMCB
TAF AMD
KMCB 140831Z 1409/1506 01004KT P6SM OVC009
     FM141500 02005KT P6SM BKN030
     FM141700 03005KT P6SM SCT035=



000
FTUS44 KLIX 140800 AAA
TAFBTR
TAF AMD
KBTR 140830Z 1409/1506 02006KT P6SM OVC010
     FM141430 05007KT P6SM BKN030
     FM141700 05007KT P6SM SCT035=



000
FTUS44 KLIX 140500
TAFNEW
TAF
KNEW 140527Z 1406/1506 03015KT P6SM OVC010
     FM141400 06012KT P6SM BKN025
     FM141600 06011KT P6SM BKN035
     FM141800 07010KT P6SM VCTS BKN040CB
     FM150000 11008KT P6SM BKN040=



000
FTUS44 KLIX 140500
TAFMCB
TAF
KMCB 140527Z 1406/1506 03005KT P6SM OVC007
      TEMPO 1406/1410 4SM BR
     FM141500 02005KT P6SM BKN030
     FM141700 03005KT P6SM SCT035=



000
FTUS44 KLIX 140500
TAFGPT
TAF
KGPT 140527Z 1406/1506 35008KT P6SM BKN015
     FM141430 05007KT P6SM BKN030
     FM141800 09008KT P6SM VCTS BKN040CB
     FM150000 12005KT P6SM BKN040=



000
FTUS44 KLIX 140500
TAFBTR
TAF
KBTR 140527Z 1406/1506 VRB03KT P6SM OVC006
      TEMPO 1406/1410 4SM BR
     FM141430 05007KT P6SM BKN030
     FM141700 05007KT P6SM SCT035=



000
FTUS44 KLIX 140500
TAFMSY
TAF
KMSY 140527Z 1406/1506 02013KT P6SM OVC010
     FM141500 06009KT P6SM BKN035
     FM141800 07009KT P6SM VCTS BKN040CB
     FM150000 10006KT P6SM BKN040=



000
FTUS44 KLIX 140000 AAA
TAFGPT
TAF AMD
KGPT 140059Z 1401/1424 01011KT P6SM SCT019
      TEMPO 1401/1403 BKN019
     FM140300 01010KT P6SM BKN018
     FM141500 09008KT P6SM SCT040=



000
FTUS44 KLIX 140000 AAA
TAFMSY
TAF AMD
KMSY 140037Z 1401/1424 02011KT P6SM BKN022
     FM141500 07009KT P6SM BKN030 PROB30 1420/1424 SHRA=



000
FTUS44 KLIX 140000 AAA
TAFNEW
TAF AMD
KNEW 140036Z 1401/1424 04013KT P6SM BKN025
     FM141500 07009KT P6SM SCT035 PROB30 1420/1424 TSRA BKN030CB=



000
FTUS44 KLIX 140000 AAA
TAFNEW
TAF AMD
KNEW 140036Z 1401/1424 04013KT P6SM BKN025
     FM141500 07009KT P6SM SCT035 PROB30 1420/1424 TSRA BKN030CB=



000
FTUS44 KLIX 132300
TAFNEW
TAF
KNEW 132324Z 1400/1424 04010KT P6SM FEW045
     FM141800 07009KT P6SM SCT035 PROB30 1420/1424 TSRA BKN030CB=



000
FTUS44 KLIX 132300
TAFMCB
TAF
KMCB 132324Z 1400/1424 36009KT P6SM BKN012
     FM141500 02005KT P6SM SCT250
     FM142000 04006KT P6SM SCT050=



000
FTUS44 KLIX 132300
TAFNEW
TAF
KNEW 132324Z 1400/1424 04010KT P6SM FEW045
     FM141800 07009KT P6SM SCT035 PROB30 1420/1424 TSRA BKN030CB=



000
FTUS44 KLIX 132300
TAFGPT
TAF
KGPT 132324Z 1400/1424 01005KT P6SM FEW030
     FM141000 04006KT P6SM SKC
     FM141800 09008KT P6SM SCT110=



000
FTUS44 KLIX 132300
TAFMSY
TAF
KMSY 132324Z 1400/1424 03012KT P6SM SCT019 SCT024 BKN090
     FM140200 03005KT P6SM SCT035
     FM141800 07009KT P6SM BKN030 PROB30 1420/1424 SHRA=



000
FTUS44 KLIX 132300
TAFBTR
TAF
KBTR 132324Z 1400/1424 VRB03KT P6SM OVC019
     FM141500 04007KT P6SM SCT045=



000
FTUS44 KLIX 132200 AAB
TAFMCB
TAF AMD
KMCB 132226Z 1322/1418 36008KT P6SM OVC010
     FM140200 01004KT P6SM BKN025
      TEMPO 1409/1413 4SM BR
     FM141700 03005KT P6SM BKN045=



000
FTUS44 KLIX 132200 AAA
TAFBTR
TAF AMD
KBTR 132224Z 1322/1418 02007KT P6SM OVC019
     FM140200 02004KT P6SM SCT030=



000
FTUS44 KLIX 131900 AAA
TAFNEW
TAF AMD
KNEW 131958Z 1320/1418 08009KT P6SM FEW035 BKN070 OVC100
      TEMPO 1320/1321 VRB25KT 3SM +SHRA BKN025 OVC080
     FM140200 03009KT P6SM SCT130=



000
FTUS44 KLIX 131900 AAA
TAFGPT
TAF AMD
KGPT 131957Z 1320/1418 35009KT P6SM SCT027
     FM141000 03006KT P6SM SCT130=



000
FTUS44 KLIX 131900 AAA
TAFMCB
TAF AMD
KMCB 131956Z 1320/1418 04008KT P6SM BKN010 OVC014
     FM140200 01004KT P6SM BKN045
     FM140500 VRB03KT P6SM SCT045
     FM140900 VRB03KT P6SM SCT250
     FM141700 03005KT P6SM BKN045=



000
FTUS44 KLIX 131900 AAA
TAFMSY
TAF AMD
KMSY 131955Z 1320/1418 05011KT P6SM SCT016 BKN040 OVC060
      TEMPO 1320/1323 -SHRA
     FM140300 04007KT P6SM SCT150
     FM141400 05008KT P6SM BKN250=



    US Dept of Commerce
    National Oceanic and Atmospheric Administration
    National Weather Service
    1325 East West Highway
    Silver Spring, MD 20910
    Page Author: NWS Internet Services Team
Disclaimer
Information Quality
Credits
Glossary
Privacy Policy
Freedom of Information Act (FOIA)
About Us
Career Opportunities